createdAt,value
2022-11-16T00:00:24.597Z,23.08
2022-11-16T00:03:07.156Z,23.42
2022-11-16T00:05:38.035Z,24.90
2022-11-16T00:08:08.385Z,23.65
2022-11-16T00:10:39.091Z,24.15
2022-11-16T00:13:09.534Z,23.13
2022-11-16T00:15:40.038Z,24.38
2022-11-16T00:18:11.652Z,20.88
2022-11-16T00:20:42.340Z,21.73
2022-11-16T00:23:12.460Z,22.08
2022-11-16T00:25:43.006Z,21.42
2022-11-16T00:28:13.327Z,21.25
2022-11-16T00:30:44.218Z,23.25
2022-11-16T00:33:17.835Z,24.20
2022-11-16T00:35:48.459Z,23.77
2022-11-16T00:38:18.458Z,24.17
2022-11-16T00:40:49.268Z,23.58
2022-11-16T00:43:19.605Z,22.85
2022-11-16T00:45:50.286Z,20.88
2022-11-16T00:48:22.185Z,22.13
2022-11-16T00:50:52.675Z,22.73
2022-11-16T00:53:24.876Z,22.52
2022-11-16T00:55:55.704Z,21.45
2022-11-16T00:58:26.942Z,22.38
2022-11-16T01:01:07.838Z,23.65
2022-11-16T01:03:40.139Z,24.27
2022-11-16T01:06:14.995Z,23.95
2022-11-16T01:08:46.194Z,29.40
2022-11-16T01:14:06.106Z,26.70
2022-11-16T01:16:37.245Z,23.85
2022-11-16T01:19:09.292Z,23.60
2022-11-16T01:21:39.853Z,24.83
2022-11-16T01:24:10.394Z,23.58
2022-11-16T01:26:40.934Z,22.55
2022-11-16T01:29:11.554Z,23.52
2022-11-16T01:31:46.463Z,21.30
2022-11-16T01:34:18.333Z,20.15
2022-11-16T01:36:49.264Z,18.17
2022-11-16T01:41:55.984Z,18.08
2022-11-16T01:44:57.067Z,16.48
2022-11-16T01:47:27.845Z,17.85
2022-11-16T01:50:07.477Z,17.17
2022-11-16T01:52:45.486Z,19.15
2022-11-16T01:55:16.645Z,19.20
2022-11-16T01:57:59.560Z,18.15
2022-11-16T02:00:30.762Z,17.77
2022-11-16T02:03:18.868Z,18.70
2022-11-16T02:06:07.121Z,18.17
2022-11-16T02:09:14.266Z,15.77
2022-11-16T02:12:15.183Z,14.27
2022-11-16T02:15:03.922Z,10.38
2022-11-16T02:17:44.642Z,8.65
2022-11-16T02:20:51.454Z,7.70
2022-11-16T02:23:57.935Z,6.82
2022-11-16T02:27:01.504Z,6.18
2022-11-16T02:29:37.825Z,5.95
2022-11-16T02:32:13.749Z,5.95
2022-11-16T02:34:49.734Z,6.05
2022-11-16T02:37:23.226Z,5.38
2022-11-16T02:39:59.937Z,6.43
2022-11-16T02:42:35.779Z,7.18
2022-11-16T02:45:14.057Z,4.72
2022-11-16T02:47:46.429Z,4.20
2022-11-16T02:50:20.028Z,2.67
2022-11-16T02:52:50.649Z,2.78
2022-11-16T02:55:21.354Z,2.42
2022-11-16T02:57:56.633Z,2.20
2022-11-16T03:00:35.784Z,2.53
2022-11-16T03:03:18.084Z,1.65
2022-11-16T03:05:53.144Z,1.95
2022-11-16T03:08:28.332Z,1.83
2022-11-16T03:11:22.599Z,1.63
2022-11-16T03:13:57.362Z,1.30
2022-11-16T03:16:35.553Z,1.27
2022-11-16T03:19:11.381Z,1.20
2022-11-16T03:21:46.169Z,1.40
2022-11-16T03:24:17.821Z,1.17
2022-11-16T03:26:56.141Z,1.10
2022-11-16T03:29:33.000Z,1.23
2022-11-16T03:32:17.541Z,0.82
2022-11-16T03:34:58.631Z,1.45
2022-11-16T03:37:31.351Z,0.98
2022-11-16T03:40:06.809Z,1.20
2022-11-16T03:42:39.601Z,0.95
2022-11-16T03:45:14.261Z,0.95
2022-11-16T03:47:46.815Z,0.88
2022-11-16T03:50:18.084Z,0.90
2022-11-16T03:52:48.285Z,1.30
2022-11-16T03:55:19.216Z,1.00
2022-11-16T03:57:50.116Z,1.13
2022-11-16T04:00:20.724Z,0.90
2022-11-16T04:02:52.495Z,0.95
2022-11-16T04:05:42.434Z,1.30
2022-11-16T04:08:35.003Z,1.20
2022-11-16T04:11:37.764Z,1.25
2022-11-16T04:14:29.494Z,1.33
2022-11-16T04:20:06.063Z,1.10
2022-11-16T04:23:00.629Z,1.20
2022-11-16T04:25:35.806Z,1.17
2022-11-16T04:28:14.976Z,1.02
2022-11-16T04:31:10.344Z,1.25
2022-11-16T04:34:00.047Z,1.30
2022-11-16T04:36:49.967Z,1.40
2022-11-16T04:39:20.617Z,1.55
2022-11-16T04:42:08.427Z,1.25
2022-11-16T04:44:56.569Z,1.73
2022-11-16T04:47:29.507Z,1.40
2022-11-16T04:50:00.244Z,1.52
2022-11-16T04:52:33.247Z,1.45
2022-11-16T04:55:04.018Z,1.70
2022-11-16T04:57:34.433Z,1.45
2022-11-16T05:00:05.793Z,1.40
2022-11-16T05:02:38.214Z,2.00
2022-11-16T05:05:10.616Z,1.30
2022-11-16T05:07:45.574Z,1.50
2022-11-16T05:10:23.149Z,2.20
2022-11-16T05:12:55.560Z,1.17
2022-11-16T05:15:27.276Z,0.98
2022-11-16T05:17:58.699Z,0.90
2022-11-16T05:20:47.119Z,1.23
2022-11-16T05:23:35.877Z,1.00
2022-11-16T05:26:12.436Z,1.05
2022-11-16T05:28:42.960Z,1.23
2022-11-16T05:31:15.798Z,1.50
2022-11-16T05:33:46.017Z,1.17
2022-11-16T05:36:18.178Z,1.27
2022-11-16T05:38:52.724Z,1.05
2022-11-16T05:41:28.309Z,1.52
2022-11-16T05:46:30.149Z,1.70
2022-11-16T05:49:03.189Z,1.33
2022-11-16T05:51:34.100Z,1.58
2022-11-16T05:54:07.529Z,1.60
2022-11-16T05:56:38.552Z,1.90
2022-11-16T05:59:12.501Z,2.10
2022-11-16T06:01:47.793Z,1.73
2022-11-16T06:04:24.433Z,1.80
2022-11-16T06:06:56.969Z,1.67
2022-11-16T06:09:33.978Z,1.48
2022-11-16T06:12:12.196Z,1.40
2022-11-16T06:14:43.485Z,0.95
2022-11-16T06:17:14.987Z,1.17
2022-11-16T06:19:46.139Z,1.00
2022-11-16T06:22:17.126Z,1.00
2022-11-16T06:24:48.914Z,1.40
2022-11-16T06:27:19.567Z,1.23
2022-11-16T06:29:49.843Z,0.98
2022-11-16T06:32:20.727Z,1.15
2022-11-16T06:34:51.196Z,0.85
2022-11-16T06:37:22.016Z,0.80
2022-11-16T06:39:53.786Z,0.85
2022-11-16T06:42:24.480Z,1.02
2022-11-16T06:44:56.775Z,0.90
2022-11-16T06:47:32.096Z,1.52
2022-11-16T06:50:03.530Z,0.82
2022-11-16T06:52:35.218Z,0.88
2022-11-16T06:55:08.736Z,1.02
2022-11-16T06:57:40.905Z,1.20
2022-11-16T07:00:13.896Z,1.07
2022-11-16T07:02:44.528Z,0.90
2022-11-16T07:05:18.105Z,1.58
2022-11-16T07:07:49.969Z,1.42
2022-11-16T07:10:22.705Z,1.45
2022-11-16T07:12:53.326Z,1.30
2022-11-16T07:15:24.337Z,1.58
2022-11-16T07:17:55.355Z,1.10
2022-11-16T07:20:25.596Z,1.45
2022-11-16T07:22:56.436Z,1.60
2022-11-16T07:25:28.216Z,1.30
2022-11-16T07:28:01.018Z,1.40
2022-11-16T07:30:32.454Z,2.30
2022-11-16T07:33:15.556Z,2.00
2022-11-16T07:36:05.975Z,1.90
2022-11-16T07:38:37.140Z,1.73
2022-11-16T07:41:13.162Z,3.10
2022-11-16T07:43:53.371Z,1.60
2022-11-16T07:46:46.135Z,1.70
2022-11-16T07:49:20.500Z,1.95
2022-11-16T07:52:11.809Z,2.25
2022-11-16T07:55:09.431Z,2.05
2022-11-16T07:57:41.250Z,1.80
2022-11-16T08:00:13.270Z,1.67
2022-11-16T08:02:58.961Z,2.00
2022-11-16T08:05:30.175Z,2.03
2022-11-16T08:08:00.322Z,2.33
2022-11-16T08:10:32.514Z,2.33
2022-11-16T08:13:04.631Z,2.55
2022-11-16T08:15:35.398Z,3.88
2022-11-16T08:18:09.159Z,3.72
2022-11-16T08:20:40.759Z,2.33
2022-11-16T08:23:11.319Z,2.33
2022-11-16T08:25:42.081Z,1.58
2022-11-16T08:28:15.138Z,1.60
2022-11-16T08:30:52.500Z,1.58
2022-11-16T08:33:26.743Z,1.45
2022-11-16T08:35:59.810Z,1.13
2022-11-16T08:38:31.154Z,1.27
2022-11-16T08:41:02.099Z,1.38
2022-11-16T08:43:34.238Z,1.42
2022-11-16T08:46:04.763Z,1.20
2022-11-16T08:48:35.547Z,1.88
2022-11-16T08:51:17.625Z,1.20
2022-11-16T08:53:57.804Z,1.10
2022-11-16T08:56:30.531Z,1.30
2022-11-16T08:59:02.258Z,1.13
2022-11-16T09:01:34.229Z,1.45
2022-11-16T09:04:04.539Z,1.30
2022-11-16T09:06:37.330Z,1.30
2022-11-16T09:09:07.828Z,1.35
2022-11-16T09:11:38.678Z,1.00
2022-11-16T09:14:10.868Z,1.27
2022-11-16T09:16:42.048Z,0.98
2022-11-16T09:19:12.289Z,1.13
2022-11-16T09:21:43.018Z,1.15
2022-11-16T09:24:14.650Z,1.25
2022-11-16T09:26:45.418Z,1.10
2022-11-16T09:29:17.915Z,1.55
2022-11-16T09:31:49.289Z,1.60
2022-11-16T09:34:19.598Z,1.67
2022-11-16T09:36:50.569Z,1.60
2022-11-16T09:39:31.019Z,1.80
2022-11-16T09:44:50.670Z,1.75
2022-11-16T09:47:24.573Z,3.55
2022-11-16T09:50:02.752Z,1.88
2022-11-16T09:52:37.238Z,2.13
2022-11-16T09:55:26.676Z,2.28
2022-11-16T09:58:01.741Z,2.00
2022-11-16T10:00:34.874Z,2.10
2022-11-16T10:03:17.710Z,1.70
2022-11-16T10:05:55.401Z,2.08
2022-11-16T10:09:37.940Z,1.58
2022-11-16T10:12:18.238Z,1.70
2022-11-16T10:15:24.008Z,2.08
2022-11-16T10:18:43.861Z,1.85
2022-11-16T10:21:48.328Z,1.63
2022-11-16T10:24:33.860Z,1.70
2022-11-16T10:27:29.228Z,1.58
2022-11-16T10:30:09.635Z,1.95
2022-11-16T10:32:47.419Z,1.70
2022-11-16T10:35:27.003Z,1.65
2022-11-16T10:38:00.648Z,2.08
2022-11-16T10:40:39.072Z,1.90
2022-11-16T10:43:30.327Z,2.03
2022-11-16T10:46:07.679Z,3.20
2022-11-16T10:48:44.074Z,1.80
2022-11-16T10:51:15.779Z,2.20
2022-11-16T10:53:48.708Z,1.95
2022-11-16T10:56:26.758Z,1.80
2022-11-16T10:58:59.891Z,1.70
2022-11-16T11:01:36.614Z,1.90
2022-11-16T11:04:24.919Z,1.55
2022-11-16T11:06:56.896Z,3.30
2022-11-16T11:09:34.906Z,2.30
2022-11-16T11:12:34.688Z,2.75
2022-11-16T11:15:21.428Z,1.63
2022-11-16T11:18:14.869Z,1.70
2022-11-16T11:20:48.741Z,1.40
2022-11-16T11:23:21.600Z,2.22
2022-11-16T11:25:56.020Z,1.58
2022-11-16T11:28:28.864Z,1.90
2022-11-16T11:31:03.453Z,5.70
2022-11-16T11:33:36.984Z,2.00
2022-11-16T11:36:14.610Z,1.70
2022-11-16T11:39:00.553Z,2.28
2022-11-16T11:41:38.709Z,2.65
2022-11-16T11:44:17.436Z,2.35
2022-11-16T11:49:50.458Z,1.70
2022-11-16T11:52:28.299Z,1.50
2022-11-16T11:54:58.728Z,1.80
2022-11-16T11:57:33.690Z,2.08
2022-11-16T12:00:07.381Z,1.80
2022-11-16T12:02:57.723Z,1.85
2022-11-16T12:05:55.508Z,1.70
2022-11-16T12:08:52.870Z,1.70
2022-11-16T12:11:33.307Z,1.90
2022-11-16T12:14:20.420Z,2.30
2022-11-16T12:16:56.709Z,1.85
2022-11-16T12:19:59.878Z,1.65
2022-11-16T12:22:50.908Z,1.73
2022-11-16T12:25:26.830Z,2.13
2022-11-16T12:28:14.310Z,2.53
2022-11-16T12:30:59.560Z,1.88
2022-11-16T12:33:41.810Z,2.53
2022-11-16T12:36:25.941Z,2.58
2022-11-16T12:39:15.515Z,2.15
2022-11-16T12:42:11.917Z,2.10
2022-11-16T12:45:06.680Z,1.98
2022-11-16T12:47:51.571Z,1.98
2022-11-16T12:50:38.778Z,2.15
2022-11-16T12:53:32.222Z,2.08
2022-11-16T12:56:12.698Z,2.28
2022-11-16T12:59:05.600Z,1.67
2022-11-16T13:02:00.188Z,2.50
2022-11-16T13:04:43.510Z,2.80
2022-11-16T13:07:19.067Z,2.85
2022-11-16T13:09:54.572Z,3.20
2022-11-16T13:12:28.579Z,3.17
2022-11-16T13:15:01.951Z,4.07
2022-11-16T13:17:36.131Z,3.25
2022-11-16T13:20:26.911Z,3.30
2022-11-16T13:23:03.999Z,3.53
2022-11-16T13:25:42.649Z,2.67
2022-11-16T13:28:23.621Z,2.88
2022-11-16T13:31:03.711Z,2.85
2022-11-16T13:33:50.690Z,2.65
2022-11-16T13:36:46.861Z,2.70
2022-11-16T13:39:22.577Z,3.55
2022-11-16T13:42:07.930Z,2.72
2022-11-16T13:44:38.571Z,3.38
2022-11-16T13:47:22.532Z,3.17
2022-11-16T13:49:57.682Z,3.58
2022-11-16T13:55:39.922Z,4.25
2022-11-16T13:58:20.800Z,3.40
2022-11-16T14:01:03.403Z,2.90
2022-11-16T14:03:38.956Z,2.80
2022-11-16T14:06:28.478Z,2.72
2022-11-16T14:09:01.692Z,3.08
2022-11-16T14:11:44.994Z,2.55
2022-11-16T14:14:57.192Z,2.45
2022-11-16T14:17:51.155Z,2.60
2022-11-16T14:23:22.732Z,3.08
2022-11-16T14:26:08.063Z,3.33
2022-11-16T14:29:03.916Z,2.85
2022-11-16T14:31:48.842Z,2.70
2022-11-16T14:34:21.709Z,2.83
2022-11-16T14:36:53.552Z,2.95
2022-11-16T14:39:38.464Z,3.30
2022-11-16T14:42:19.133Z,3.80
2022-11-16T14:44:50.020Z,3.38
2022-11-16T14:49:55.523Z,3.03
2022-11-16T14:52:35.706Z,3.58
2022-11-16T14:55:08.941Z,4.38
2022-11-16T14:57:40.963Z,3.95
2022-11-16T15:00:13.532Z,4.72
2022-11-16T15:02:51.363Z,4.28
2022-11-16T15:05:24.473Z,3.65
2022-11-16T15:07:59.544Z,4.28
2022-11-16T15:10:31.821Z,5.97
2022-11-16T15:13:04.645Z,5.75
2022-11-16T15:15:35.510Z,4.57
2022-11-16T15:18:15.394Z,5.28
2022-11-16T15:20:51.655Z,5.38
2022-11-16T15:23:27.657Z,6.07
2022-11-16T15:26:04.994Z,5.65
2022-11-16T15:28:38.428Z,3.10
2022-11-16T15:31:10.619Z,3.45
2022-11-16T15:33:45.583Z,2.97
2022-11-16T15:36:31.223Z,3.10
2022-11-16T15:39:04.204Z,2.17
2022-11-16T15:41:36.030Z,2.70
2022-11-16T15:44:14.799Z,2.67
2022-11-16T15:46:51.139Z,3.30
2022-11-16T15:49:32.857Z,3.75
2022-11-16T15:52:04.115Z,3.55
2022-11-16T15:57:27.592Z,2.33
2022-11-16T16:00:00.812Z,2.97
2022-11-16T16:02:34.293Z,2.88
2022-11-16T16:05:06.901Z,2.75
2022-11-16T16:07:41.977Z,3.10
2022-11-16T16:10:41.159Z,5.25
2022-11-16T16:13:30.346Z,2.78
2022-11-16T16:16:28.370Z,2.83
2022-11-16T16:19:09.300Z,2.65
2022-11-16T16:21:46.608Z,3.10
2022-11-16T16:24:40.565Z,3.42
2022-11-16T16:27:21.125Z,2.63
2022-11-16T16:29:52.754Z,2.63
2022-11-16T16:32:29.193Z,2.75
2022-11-16T16:35:00.985Z,2.75
2022-11-16T16:37:36.244Z,2.88
2022-11-16T16:40:07.319Z,3.67
2022-11-16T16:42:37.979Z,2.97
2022-11-16T16:45:14.168Z,2.50
2022-11-16T16:47:45.908Z,2.78
2022-11-16T16:50:16.297Z,2.92
2022-11-16T16:52:46.920Z,2.35
2022-11-16T16:55:17.039Z,2.20
2022-11-16T16:57:47.607Z,2.75
2022-11-16T17:00:19.620Z,2.13
2022-11-16T17:02:52.540Z,2.70
2022-11-16T17:05:22.670Z,2.50
2022-11-16T17:07:56.627Z,2.53
2022-11-16T17:10:27.179Z,2.60
2022-11-16T17:12:58.502Z,2.63
2022-11-16T17:15:28.697Z,2.63
2022-11-16T17:18:02.024Z,2.80
2022-11-16T17:20:32.191Z,2.88
2022-11-16T17:23:04.195Z,4.03
2022-11-16T17:25:36.070Z,2.80
2022-11-16T17:28:07.230Z,3.20
2022-11-16T17:30:37.959Z,2.87
2022-11-16T17:33:10.160Z,2.80
2022-11-16T17:35:41.791Z,2.92
2022-11-16T17:38:14.241Z,2.72
2022-11-16T17:40:45.299Z,3.58
2022-11-16T17:43:16.086Z,3.10
2022-11-16T17:45:49.482Z,3.60
2022-11-16T17:48:24.973Z,3.15
2022-11-16T17:50:57.409Z,4.20
2022-11-16T17:53:32.797Z,3.60
2022-11-16T17:56:02.952Z,3.20
2022-11-16T17:58:34.789Z,3.55
2022-11-16T18:01:05.296Z,3.30
2022-11-16T18:03:40.142Z,3.60
2022-11-16T18:06:13.585Z,3.97
2022-11-16T18:08:45.284Z,4.63
2022-11-16T18:11:17.199Z,4.32
2022-11-16T18:13:48.571Z,5.53
2022-11-16T18:16:22.324Z,5.50
2022-11-16T18:18:59.308Z,3.80
2022-11-16T18:21:30.452Z,3.67
2022-11-16T18:24:01.439Z,4.03
2022-11-16T18:26:31.669Z,3.27
2022-11-16T18:29:02.158Z,5.63
2022-11-16T18:31:33.281Z,4.97
2022-11-16T18:34:05.650Z,3.75
2022-11-16T18:36:36.137Z,4.78
2022-11-16T18:39:07.307Z,3.65
2022-11-16T18:41:51.522Z,4.15
2022-11-16T18:44:26.565Z,4.65
2022-11-16T18:46:57.148Z,4.10
2022-11-16T18:49:30.481Z,3.00
2022-11-16T18:52:02.738Z,3.45
2022-11-16T18:54:35.778Z,4.90
2022-11-16T18:57:07.208Z,4.50
2022-11-16T18:59:39.944Z,5.63
2022-11-16T19:02:13.562Z,5.68
2022-11-16T19:04:46.957Z,6.15
2022-11-16T19:07:18.465Z,3.92
2022-11-16T19:09:51.941Z,3.65
2022-11-16T19:12:22.233Z,3.97
2022-11-16T19:14:54.162Z,3.58
2022-11-16T19:17:27.614Z,3.60
2022-11-16T19:20:01.024Z,3.08
2022-11-16T19:22:36.345Z,3.10
2022-11-16T19:25:10.309Z,4.00
2022-11-16T19:27:40.841Z,3.72
2022-11-16T19:30:14.114Z,3.90
2022-11-16T19:32:44.705Z,4.30
2022-11-16T19:35:17.833Z,3.40
2022-11-16T19:37:48.952Z,4.03
2022-11-16T19:40:25.200Z,4.15
2022-11-16T19:42:56.245Z,4.53
2022-11-16T19:48:01.715Z,5.82
2022-11-16T19:50:37.910Z,3.55
2022-11-16T19:53:09.727Z,5.05
2022-11-16T19:55:46.221Z,4.22
2022-11-16T19:58:19.841Z,3.95
2022-11-16T20:00:51.358Z,4.95
2022-11-16T20:03:23.769Z,4.47
2022-11-16T20:06:10.268Z,3.50
2022-11-16T20:08:43.712Z,3.15
2022-11-16T20:11:18.079Z,4.03
2022-11-16T20:13:51.764Z,2.95
2022-11-16T20:16:27.994Z,3.55
2022-11-16T20:19:01.620Z,3.60
2022-11-16T20:21:36.988Z,3.50
2022-11-16T20:24:08.951Z,5.22
2022-11-16T20:26:42.829Z,5.28
2022-11-16T20:29:13.921Z,5.38
2022-11-16T20:34:17.281Z,3.10
2022-11-16T20:36:51.091Z,4.45
2022-11-16T20:39:22.380Z,4.15
2022-11-16T20:41:53.071Z,5.63
2022-11-16T20:44:23.539Z,5.55
2022-11-16T20:46:53.995Z,5.22
2022-11-16T20:49:24.211Z,2.85
2022-11-16T20:51:56.251Z,5.20
2022-11-16T20:54:26.472Z,5.15
2022-11-16T20:56:57.029Z,4.50
2022-11-16T20:59:27.200Z,5.43
2022-11-16T21:01:58.750Z,6.15
2022-11-16T21:04:30.381Z,5.30
2022-11-16T21:07:02.294Z,3.72
2022-11-16T21:12:42.768Z,4.07
2022-11-16T21:15:14.453Z,3.85
2022-11-16T21:17:45.290Z,3.17
2022-11-16T21:20:31.249Z,3.63
2022-11-16T21:23:04.749Z,3.35
2022-11-16T21:25:37.187Z,4.45
2022-11-16T21:28:09.832Z,3.75
2022-11-16T21:30:39.811Z,3.00
2022-11-16T21:33:10.737Z,3.90
2022-11-16T21:35:40.656Z,3.20
2022-11-16T21:38:12.710Z,6.75
2022-11-16T21:43:15.298Z,5.57
2022-11-16T21:45:45.601Z,7.75
2022-11-16T21:48:16.517Z,4.30
2022-11-16T21:50:46.741Z,6.38
2022-11-16T21:53:18.878Z,2.67
2022-11-16T21:55:51.810Z,2.72
2022-11-16T21:58:22.291Z,3.70
2022-11-16T22:00:55.219Z,3.97
2022-11-16T22:03:26.996Z,3.60
2022-11-16T22:06:15.655Z,3.00
2022-11-16T22:08:48.785Z,4.30
2022-11-16T22:11:22.439Z,2.05
2022-11-16T22:13:53.316Z,2.90
2022-11-16T22:16:24.173Z,2.55
2022-11-16T22:18:54.690Z,2.28
2022-11-16T22:21:24.812Z,2.28
2022-11-16T22:23:56.918Z,2.65
2022-11-16T22:26:27.250Z,2.65
2022-11-16T22:28:57.746Z,2.70
2022-11-16T22:31:28.023Z,2.97
2022-11-16T22:33:58.501Z,2.40
2022-11-16T22:36:28.693Z,2.72
2022-11-16T22:39:00.522Z,3.13
2022-11-16T22:41:30.541Z,2.80
2022-11-16T22:44:01.206Z,2.90
2022-11-16T22:46:32.412Z,2.63
2022-11-16T22:51:33.258Z,2.40
2022-11-16T22:54:09.055Z,2.20
2022-11-16T22:56:39.462Z,3.22
2022-11-16T22:59:10.878Z,3.00
2022-11-16T23:01:41.535Z,2.42
2022-11-16T23:04:11.856Z,3.38
2022-11-16T23:06:41.817Z,2.35
2022-11-16T23:09:13.807Z,2.67
2022-11-16T23:14:48.466Z,2.83
2022-11-16T23:17:19.032Z,2.10
2022-11-16T23:20:06.932Z,2.88
2022-11-16T23:22:54.553Z,2.13
2022-11-16T23:25:43.891Z,2.40
2022-11-16T23:28:17.029Z,2.40
2022-11-16T23:30:47.729Z,2.63
2022-11-16T23:33:18.330Z,2.33
2022-11-16T23:35:48.971Z,2.38
2022-11-16T23:38:19.011Z,2.05
2022-11-16T23:40:50.925Z,2.22
2022-11-16T23:43:38.257Z,2.08
2022-11-16T23:46:08.939Z,2.20
2022-11-16T23:48:39.123Z,3.00
2022-11-16T23:51:09.661Z,2.23
2022-11-16T23:53:39.728Z,2.80
2022-11-16T23:56:12.011Z,2.60
2022-11-16T23:58:41.999Z,2.72
